Time;durP1;ratioP1;P1;durP2;ratioP2;P2;SDS_P1;SDS_P2;PMS_P1;PMS_P2;Temp;Humidity;BMP_temperature;BMP_pressure;BME280_temperature;BME280_humidity;BME280_pressure;Samples;Min_cycle;Max_cycle;Signal;HPM_P1;HPM_P2
2022/05/21 00:00:06;;;;;;;5.10;2.60;;;;;;;22.80;40.10;101039.98;105075;1302;61444;-85
2022/05/21 00:02:34;;;;;;;5.90;2.80;;;;;;;22.80;40.20;101040.35;105020;1300;72585;-83
2022/05/21 00:05:06;;;;;;;4.40;2.30;;;;;;;22.80;40.25;101041.79;104860;1300;76247;-83
2022/05/21 00:07:32;;;;;;;4.90;2.70;;;;;;;22.80;40.37;101043.41;104799;1300;62412;-82
2022/05/21 00:10:07;;;;;;;4.10;2.50;;;;;;;22.80;40.26;101046.13;104919;1300;61409;-87
2022/05/21 00:12:34;;;;;;;5.40;2.60;;;;;;;22.80;40.31;101045.59;104921;1300;72707;-82
2022/05/21 00:15:02;;;;;;;;;;;;;;;22.79;40.39;101047.94;105142;1300;74987;-84
2022/05/21 00:17:32;;;;;;;4.30;2.50;;;;;;;22.77;40.40;101047.23;105153;1300;61833;-84
2022/05/21 00:20:07;;;;;;;6.10;2.50;;;;;;;22.77;40.42;101047.73;104931;1303;61421;-86
2022/05/21 00:22:35;;;;;;;4.50;2.20;;;;;;;22.77;40.39;101048.11;105050;1300;73877;-84
2022/05/21 00:25:04;;;;;;;4.80;2.80;;;;;;;22.77;40.42;101047.02;105036;1300;76584;-88
2022/05/21 00:27:35;;;;;;;7.00;2.40;;;;;;;22.77;40.45;101047.41;104851;1300;61262;-83
2022/05/21 00:30:04;;;;;;;6.40;3.00;;;;;;;22.77;40.28;101048.80;104851;1300;61355;-84
2022/05/21 00:32:33;;;;;;;4.80;2.40;;;;;;;22.77;40.30;101050.79;105088;1300;73841;-83
2022/05/21 00:35:09;;;;;;;4.20;2.50;;;;;;;22.77;40.39;101052.42;105051;1300;74904;-86
2022/05/21 00:37:37;;;;;;;4.80;2.60;;;;;;;22.77;40.33;101054.38;104847;1300;61731;-83
2022/05/21 00:40:04;;;;;;;3.50;2.20;;;;;;;22.78;40.35;101050.20;105061;1300;61803;-83
2022/05/21 00:42:32;;;;;;;8.10;2.90;;;;;;;22.77;40.41;101041.42;104833;1300;61157;-84
2022/05/21 00:45:02;;;;;;;5.30;2.60;;;;;;;22.77;40.35;101034.45;104819;1300;74730;-84
2022/05/21 00:47:31;;;;;;;4.80;2.90;;;;;;;22.77;40.54;101028.34;105034;1300;61282;-82
2022/05/21 00:49:56;;;;;;;4.80;2.60;;;;;;;22.77;40.43;101026.36;105041;1300;63051;-83
2022/05/21 00:52:27;;;;;;;5.70;2.70;;;;;;;22.77;40.37;101023.52;104865;1300;61271;-83
2022/05/21 00:55:02;;;;;;;4.30;2.40;;;;;;;22.77;40.42;101022.07;105121;1300;74576;-83
2022/05/21 00:57:37;;;;;;;4.70;2.50;;;;;;;22.77;40.41;101020.27;104892;1300;61365;-82
2022/05/21 01:00:18;;;;;;;4.40;2.40;;;;;;;22.77;40.43;101020.66;105020;1300;62119;-83
2022/05/21 01:02:47;;;;;;;5.90;2.60;;;;;;;22.77;40.49;101014.91;104836;1301;74248;-82
2022/05/21 01:05:19;;;;;;;5.30;3.10;;;;;;;22.77;40.57;101010.58;105054;1300;76048;-85
2022/05/21 01:07:50;;;;;;;5.40;2.70;;;;;;;22.77;40.55;101004.70;104889;1300;61313;-82
2022/05/21 01:10:17;;;;;;;6.70;3.10;;;;;;;22.77;40.57;101002.02;104895;1300;61921;-82
2022/05/21 01:13:04;;;;;;;6.20;3.10;;;;;;;22.77;40.58;101002.38;104995;1300;72700;-83
2022/05/21 01:15:35;;;;;;;5.30;2.60;;;;;;;22.76;40.56;101001.48;104661;1300;73767;-80
2022/05/21 01:18:10;;;;;;;4.30;2.50;;;;;;;22.76;40.60;100998.98;104836;1300;61419;-83
2022/05/21 01:20:41;;;;;;;5.20;2.70;;;;;;;22.75;40.70;100997.41;105138;1300;61143;-82
2022/05/21 01:23:07;;;;;;;4.80;2.80;;;;;;;22.76;40.67;101002.04;105054;1300;72728;-83
2022/05/21 01:25:40;;;;;;;5.40;3.00;;;;;;;22.76;40.75;101003.29;104854;1303;75808;-84
2022/05/21 01:28:11;;;;;;;7.10;3.10;;;;;;;22.76;40.67;101004.58;104842;1303;62702;-82
2022/05/21 01:30:49;;;;;;;4.70;2.90;;;;;;;22.76;40.76;101002.56;104850;1300;61307;-83
2022/05/21 01:33:19;;;;;;;5.80;2.80;;;;;;;22.76;40.88;100998.46;104894;1302;73013;-84
2022/05/21 01:35:48;;;;;;;6.50;3.40;;;;;;;22.76;40.94;100989.86;104819;1302;76003;-84
2022/05/21 01:38:15;;;;;;;6.80;3.50;;;;;;;22.76;40.78;100988.41;104757;1303;61264;-82
2022/05/21 01:40:41;;;;;;;5.40;3.30;;;;;;;22.76;40.86;100981.59;104838;1303;61631;-82
2022/05/21 01:45:52;;;;;;;8.60;5.00;;;;;;;22.75;41.05;100982.34;104810;1301;75081;-84
2022/05/21 01:48:20;;;;;;;8.30;4.00;;;;;;;22.76;40.89;100977.49;104685;1303;61131;-82
2022/05/21 01:50:46;;;;;;;7.30;4.70;;;;;;;22.76;40.91;100978.21;104896;1302;61194;-82
2022/05/21 01:53:15;;;;;;;6.10;3.60;;;;;;;22.76;40.84;100977.14;104853;1303;61247;-84
2022/05/21 01:55:42;;;;;;;5.20;3.50;;;;;;;22.76;40.73;100977.08;104875;1303;75678;-83
2022/05/21 01:58:08;;;;;;;4.60;2.80;;;;;;;22.76;40.80;100975.30;104854;1302;61921;-82
2022/05/21 02:00:34;;;;;;;5.20;3.20;;;;;;;22.77;40.90;100971.88;104704;1303;61429;-83
2022/05/21 02:03:03;;;;;;;5.50;3.20;;;;;;;22.76;40.87;100967.40;104864;1301;73762;-84
2022/05/21 02:05:29;;;;;;;6.30;3.50;;;;;;;22.76;40.89;100965.25;104823;1301;61387;-84
2022/05/21 02:07:55;;;;;;;6.30;3.50;;;;;;;22.76;40.93;100962.77;104903;1300;61290;-83
2022/05/21 02:10:22;;;;;;;7.60;3.70;;;;;;;22.76;41.03;100957.73;104858;1302;61316;-85
2022/05/21 02:12:51;;;;;;;6.30;3.20;;;;;;;22.76;40.96;100957.91;104874;1301;73684;-83
2022/05/21 02:15:20;;;;;;;6.20;3.40;;;;;;;22.75;41.01;100955.25;104888;1300;61393;-84
2022/05/21 02:17:48;;;;;;;4.70;3.00;;;;;;;22.76;40.79;100957.76;104859;1300;61847;-83
2022/05/21 02:20:17;;;;;;;5.80;3.10;;;;;;;22.75;40.93;100959.79;104781;1300;60569;-83
2022/05/21 02:22:46;;;;;;;6.50;3.80;;;;;;;22.75;41.00;100959.95;104808;1303;74406;-83
2022/05/21 02:25:16;;;;;;;5.60;3.20;;;;;;;22.75;41.01;100963.41;105104;1300;74933;-85
2022/05/21 02:27:43;;;;;;;5.50;3.50;;;;;;;22.74;41.11;100963.79;104899;1303;61407;-84
2022/05/21 02:30:14;;;;;;;;;;;;;;;22.74;41.01;100960.89;104929;1300;61695;-84
2022/05/21 02:32:43;;;;;;;7.20;3.50;;;;;;;22.72;40.95;100962.71;104810;1305;73818;-83
2022/05/21 02:35:17;;;;;;;5.70;3.40;;;;;;;22.72;41.09;100967.90;104779;1305;74731;-83
2022/05/21 02:40:30;;;;;;;5.80;3.50;;;;;;;22.72;41.04;100969.36;104759;1304;61247;-83
2022/05/21 02:42:59;;;;;;;5.90;3.30;;;;;;;22.71;41.02;100969.75;104678;1305;61603;-86
2022/05/21 02:45:28;;;;;;;6.10;3.70;;;;;;;22.72;41.01;100970.98;104583;1305;74745;-82
2022/05/21 02:47:54;;;;;;;6.00;3.30;;;;;;;22.72;41.03;100967.02;104456;1305;62722;-83
2022/05/21 02:50:23;;;;;;;5.50;2.90;;;;;;;22.72;41.12;100967.75;104571;1305;61157;-82
2022/05/21 02:52:49;;;;;;;6.40;3.10;;;;;;;22.72;41.09;100970.04;104633;1305;73834;-84
2022/05/21 02:55:15;;;;;;;6.20;3.40;;;;;;;22.72;41.12;100967.39;104614;1306;61253;-83
2022/05/21 02:57:42;;;;;;;5.70;3.30;;;;;;;22.72;41.01;100967.58;104538;1306;61554;-83
2022/05/21 03:00:17;;;;;;;6.50;3.60;;;;;;;22.71;41.06;100965.64;104622;1306;60193;-84
2022/05/21 03:02:43;;;;;;;6.30;3.20;;;;;;;22.72;41.09;100967.02;104657;1305;73906;-83
2022/05/21 03:05:12;;;;;;;5.50;3.60;;;;;;;22.72;41.02;100969.34;104903;1303;74711;-83
2022/05/21 03:07:44;;;;;;;5.00;3.10;;;;;;;22.72;41.15;100966.85;105064;1303;61084;-83
2022/05/21 03:10:23;;;;;;;5.80;3.20;;;;;;;22.72;41.04;100961.64;104838;1303;61430;-83
2022/05/21 03:12:50;;;;;;;;;;;;;;;22.72;41.09;100957.33;104919;1300;74049;-83
2022/05/21 03:15:16;;;;;;;6.10;2.90;;;;;;;22.69;41.20;100953.95;105078;1300;61257;-84
2022/05/21 03:17:44;;;;;;;7.00;3.30;;;;;;;22.70;41.16;100949.08;104891;1300;61809;-84
2022/05/21 03:20:13;;;;;;;6.70;3.10;;;;;;;22.70;41.10;100948.29;104799;1303;61711;-83
2022/05/21 03:22:39;;;;;;;;;;;;;;;22.71;41.05;100949.88;104866;1300;72677;-82
2022/05/21 03:25:08;;;;;;;6.60;3.30;;;;;;;22.68;41.14;100950.98;105109;1300;61202;-82
2022/05/21 03:27:34;;;;;;;5.20;3.10;;;;;;;22.69;41.07;100958.24;105076;1302;61155;-83
2022/05/21 03:30:05;;;;;;;5.10;3.10;;;;;;;22.69;41.19;100958.25;104843;1302;61248;-84
2022/05/21 03:32:34;;;;;;;5.30;3.10;;;;;;;22.70;41.02;100955.89;104875;1300;73800;-83
2022/05/21 03:35:04;;;;;;;5.40;2.80;;;;;;;22.70;41.17;100955.65;104877;1300;74768;-83
2022/05/21 03:37:30;;;;;;;6.40;3.00;;;;;;;22.70;41.08;100955.31;105050;1300;61143;-84
2022/05/21 03:39:56;;;;;;;8.60;3.40;;;;;;;22.70;41.14;100957.47;104879;1300;61393;-83
2022/05/21 03:42:24;;;;;;;5.70;2.90;;;;;;;22.71;41.12;100956.38;104805;1300;62305;-83
2022/05/21 03:44:50;;;;;;;6.50;3.00;;;;;;;22.71;41.10;100960.45;104844;1303;74812;-82
2022/05/21 03:47:16;;;;;;;5.30;3.00;;;;;;;22.71;41.08;100963.88;104841;1300;61368;-82
2022/05/21 03:49:41;;;;;;;5.70;2.90;;;;;;;22.71;41.11;100958.29;105045;1299;61279;-82
2022/05/21 03:52:10;;;;;;;5.20;2.90;;;;;;;22.71;41.19;100956.67;104904;1300;61228;-83
2022/05/21 03:54:36;;;;;;;5.90;3.20;;;;;;;22.72;41.08;100953.59;104798;1301;61207;-83
2022/05/21 03:57:02;;;;;;;5.40;3.20;;;;;;;22.72;41.14;100954.83;104874;1300;61260;-83
2022/05/21 03:59:28;;;;;;;5.70;3.10;;;;;;;22.72;41.05;100951.07;105076;1300;61329;-83
2022/05/21 04:02:01;;;;;;;;;;;;;;;22.72;41.15;100957.11;104885;1300;73089;-82
2022/05/21 04:04:27;;;;;;;6.10;3.10;;;;;;;22.70;41.13;100955.14;105011;1300;74762;-82
2022/05/21 04:06:55;;;;;;;6.10;2.90;;;;;;;22.71;41.07;100959.02;105075;1300;61393;-83
2022/05/21 04:09:28;;;;;;;6.00;3.30;;;;;;;22.71;41.08;100960.06;104876;1300;61241;-89
2022/05/21 04:11:58;;;;;;;5.90;3.00;;;;;;;22.72;41.11;100963.78;105129;1302;73018;-83
2022/05/21 04:14:30;;;;;;;6.10;3.10;;;;;;;22.73;41.16;100963.54;104880;1303;75805;-84
2022/05/21 04:17:00;;;;;;;6.00;3.00;;;;;;;22.73;41.14;100962.77;105047;1300;61151;-84
2022/05/21 04:19:29;;;;;;;7.10;3.10;;;;;;;22.74;41.11;100964.38;105028;1303;61195;-83
2022/05/21 04:21:57;;;;;;;5.70;3.00;;;;;;;22.75;41.13;100968.24;104810;1303;71601;-84
2022/05/21 04:24:23;;;;;;;5.50;2.90;;;;;;;22.75;41.04;100972.84;104860;1300;61121;-81
2022/05/21 04:26:49;;;;;;;5.70;2.60;;;;;;;22.75;41.17;100973.19;104858;1300;61140;-84
2022/05/21 04:29:18;;;;;;;7.90;2.90;;;;;;;22.76;41.17;100976.94;104863;1300;61332;-82
2022/05/21 04:31:46;;;;;;;6.50;3.20;;;;;;;22.77;41.24;100975.45;104878;1300;73153;-82
2022/05/21 04:34:15;;;;;;;4.90;3.00;;;;;;;22.77;41.13;100974.69;105098;1300;74788;-83
2022/05/21 04:36:43;;;;;;;6.10;2.60;;;;;;;22.78;41.28;100974.98;104829;1300;61259;-82
2022/05/21 04:39:12;;;;;;;5.80;3.30;;;;;;;22.79;41.35;100974.27;105076;1300;61833;-84
2022/05/21 04:41:38;;;;;;;6.10;2.60;;;;;;;22.79;41.40;100973.35;104810;1300;72718;-85
2022/05/21 04:44:07;;;;;;;5.30;2.70;;;;;;;22.79;41.32;100970.42;104809;1303;61368;-84
2022/05/21 04:46:39;;;;;;;4.70;2.90;;;;;;;22.81;41.38;100968.53;104884;1300;61399;-84
2022/05/21 04:49:10;;;;;;;4.40;2.60;;;;;;;22.81;41.51;100964.73;104862;1300;61152;-83
2022/05/21 04:51:39;;;;;;;4.40;2.70;;;;;;;22.82;41.59;100965.92;104878;1300;61298;-82
2022/05/21 04:54:09;;;;;;;5.80;3.00;;;;;;;22.83;41.47;100966.00;104861;1303;74683;-83
2022/05/21 04:56:41;;;;;;;4.50;2.70;;;;;;;22.84;41.61;100966.30;104871;1300;61161;-82
2022/05/21 04:59:16;;;;;;;6.60;2.60;;;;;;;22.85;41.50;100962.44;105000;1300;61291;-84
2022/05/21 05:01:44;;;;;;;5.30;3.10;;;;;;;22.86;41.54;100960.55;105075;1300;61300;-83
2022/05/21 05:04:13;;;;;;;4.60;2.70;;;;;;;22.88;41.47;100957.88;104846;1300;73674;-83
2022/05/21 05:06:39;;;;;;;6.00;3.10;;;;;;;22.89;41.57;100953.86;104861;1300;61273;-87
2022/05/21 05:09:06;;;;;;;6.30;2.80;;;;;;;22.90;41.52;100956.14;104811;1300;61282;-82
2022/05/21 05:11:34;;;;;;;6.30;3.00;;;;;;;22.91;41.57;100956.05;104815;1300;61125;-84
2022/05/21 05:14:00;;;;;;;6.00;2.90;;;;;;;22.92;41.64;100954.17;105046;1300;74951;-83
2022/05/21 05:16:28;;;;;;;6.00;2.80;;;;;;;22.93;41.60;100953.02;104899;1300;61368;-82
2022/05/21 05:18:53;;;;;;;4.80;2.90;;;;;;;22.95;41.65;100952.90;105139;1300;61244;-83
2022/05/21 05:21:19;;;;;;;5.10;2.80;;;;;;;22.96;41.69;100949.41;105065;1300;61200;-82
2022/05/21 05:23:45;;;;;;;5.80;3.00;;;;;;;22.97;41.62;100944.12;104751;1303;61271;-83
2022/05/21 05:26:11;;;;;;;5.00;2.80;;;;;;;22.98;41.60;100942.78;104852;1300;61281;-82
2022/05/21 05:28:37;;;;;;;4.50;2.70;;;;;;;22.99;41.63;100939.64;104985;1303;61804;-83
2022/05/21 05:31:06;;;;;;;6.80;2.70;;;;;;;23.01;41.59;100936.85;104839;1300;61317;-83
2022/05/21 05:33:33;;;;;;;5.30;2.90;;;;;;;23.02;41.55;100935.16;104823;1303;75974;-80
2022/05/21 05:36:00;;;;;;;5.80;3.00;;;;;;;23.02;41.67;100937.07;104933;1299;61259;-83
2022/05/21 05:38:25;;;;;;;6.60;2.80;;;;;;;23.03;41.63;100943.27;105066;1300;61288;-83
2022/05/21 05:40:52;;;;;;;5.00;2.90;;;;;;;23.04;41.67;100939.98;105009;1299;61359;-83
2022/05/21 05:43:19;;;;;;;5.10;2.90;;;;;;;23.05;41.58;100933.11;104890;1300;61256;-83
2022/05/21 05:45:48;;;;;;;4.80;2.60;;;;;;;23.06;41.62;100932.27;104870;1303;61290;-84
2022/05/21 05:48:14;;;;;;;;;;;;;;;23.07;41.70;100929.01;105066;1303;61290;-82
2022/05/21 05:50:40;;;;;;;5.80;2.80;;;;;;;23.05;41.72;100926.29;105057;1303;61374;-82
2022/05/21 05:53:09;;;;;;;5.20;2.50;;;;;;;23.06;41.63;100926.54;104818;1302;61522;-84
2022/05/21 05:55:37;;;;;;;5.00;2.60;;;;;;;23.07;41.62;100927.02;104492;1300;61456;-83
2022/05/21 05:59:48;;;;;;;7.20;3.10;;;;;;;23.08;41.54;100929.44;104843;1300;61253;-83
2022/05/21 06:00:55;;;;;;;;;;;;;;;23.09;41.64;100931.88;104898;1300;72602;-82
2022/05/21 06:03:21;;;;;;;5.90;2.70;;;;;;;23.07;41.68;100926.47;105039;1300;75677;-84
2022/05/21 06:05:49;;;;;;;6.30;3.00;;;;;;;23.08;41.65;100920.79;105040;1300;61358;-82
2022/05/21 06:08:19;;;;;;;5.40;2.40;;;;;;;23.10;41.60;100918.17;105115;1300;61259;-83
2022/05/21 06:10:48;;;;;;;5.50;2.50;;;;;;;23.10;41.63;100917.08;105058;1300;73880;-84
2022/05/21 06:13:14;;;;;;;4.50;2.80;;;;;;;23.11;41.69;100920.80;104840;1300;74525;-82
2022/05/21 06:15:43;;;;;;;5.40;2.80;;;;;;;23.11;41.62;100924.71;104880;1300;61357;-84
2022/05/21 06:18:14;;;;;;;5.30;2.90;;;;;;;23.12;41.72;100923.59;104802;1303;61358;-82
2022/05/21 06:20:41;;;;;;;4.40;2.60;;;;;;;23.13;41.73;100922.84;105073;1300;73787;-83
2022/05/21 06:23:07;;;;;;;6.10;2.70;;;;;;;23.13;41.74;100922.46;104816;1300;74839;-83
2022/05/21 06:25:33;;;;;;;5.90;2.50;;;;;;;23.13;41.81;100925.84;105165;1300;61223;-82
2022/05/21 06:27:59;;;;;;;4.90;2.60;;;;;;;23.14;41.81;100924.02;104839;1300;61285;-83
2022/05/21 06:30:28;;;;;;;6.30;2.90;;;;;;;23.14;41.84;100923.61;104793;1300;61170;-83
2022/05/21 06:32:54;;;;;;;;;;;;;;;23.15;41.72;100920.55;104804;1300;75682;-84
2022/05/21 06:35:20;;;;;;;3.70;2.40;;;;;;;23.13;41.78;100919.59;105024;1300;61291;-82
2022/05/21 06:37:48;;;;;;;4.40;2.40;;;;;;;23.14;41.88;100913.58;105047;1300;61296;-83
2022/05/21 06:40:15;;;;;;;5.90;2.80;;;;;;;23.15;41.79;100909.42;104837;1300;73129;-85
2022/05/21 06:42:41;;;;;;;6.60;2.60;;;;;;;23.15;41.89;100909.20;105033;1300;61150;-83
2022/05/21 06:45:08;;;;;;;5.00;2.80;;;;;;;23.16;41.86;100908.61;104862;1300;61173;-82
2022/05/21 06:47:37;;;;;;;4.80;2.80;;;;;;;23.16;41.81;100900.71;104872;1300;61873;-83
2022/05/21 06:50:06;;;;;;;4.20;2.80;;;;;;;23.16;41.88;100898.16;104804;1300;72837;-82
2022/05/21 06:52:32;;;;;;;5.50;2.90;;;;;;;23.16;41.90;100893.86;104618;1305;74760;-84
2022/05/21 06:54:59;;;;;;;4.90;2.40;;;;;;;23.16;41.79;100894.37;104487;1305;61297;-84
2022/05/21 06:57:28;;;;;;;4.70;2.50;;;;;;;23.16;41.77;100895.26;104545;1306;61410;-84
2022/05/21 06:59:57;;;;;;;5.70;2.80;;;;;;;23.17;41.72;100892.02;104558;1306;73806;-83
2022/05/21 07:02:24;;;;;;;4.90;2.70;;;;;;;23.17;41.89;100884.80;104593;1306;61368;-85
2022/05/21 07:07:43;;;;;;;5.40;2.50;;;;;;;23.17;41.91;100876.55;104671;1305;61288;-83
2022/05/21 07:10:19;;;;;;;4.60;2.60;;;;;;;23.18;41.80;100875.42;104659;1306;73912;-83
2022/05/21 07:12:49;;;;;;;4.90;2.50;;;;;;;23.17;41.77;100872.95;104485;1305;75460;-83
2022/05/21 07:15:15;;;;;;;4.80;2.60;;;;;;;23.17;41.78;100868.45;104620;1305;61171;-82
2022/05/21 07:17:41;;;;;;;6.10;2.40;;;;;;;23.18;41.91;100870.59;104651;1305;61124;-88
2022/05/21 07:20:10;;;;;;;6.40;2.70;;;;;;;23.18;41.86;100868.60;104520;1306;61407;-85
2022/05/21 07:22:42;;;;;;;5.40;2.70;;;;;;;23.18;41.78;100866.09;104456;1308;75116;-82
2022/05/21 07:25:12;;;;;;;4.50;2.70;;;;;;;23.18;41.79;100868.06;104562;1306;61170;-82
2022/05/21 07:27:39;;;;;;;5.70;2.50;;;;;;;23.18;41.77;100863.04;104400;1306;61855;-81
2022/05/21 07:30:14;;;;;;;4.50;2.60;;;;;;;23.17;41.78;100859.83;104574;1302;61316;-84
2022/05/21 07:32:45;;;;;;;4.30;2.40;;;;;;;23.18;41.91;100859.64;105034;1303;75539;-86
2022/05/21 07:35:12;;;;;;;5.90;2.70;;;;;;;23.18;41.75;100865.19;104898;1300;61404;-83
2022/05/21 07:37:39;;;;;;;4.30;2.50;;;;;;;23.17;41.82;100863.10;104874;1300;61253;-86
2022/05/21 07:40:12;;;;;;;3.90;2.40;;;;;;;23.17;41.78;100862.18;105060;1300;71927;-83
2022/05/21 07:42:40;;;;;;;5.30;2.50;;;;;;;23.17;41.79;100863.41;104883;1300;75773;-85
2022/05/21 07:45:07;;;;;;;5.50;2.50;;;;;;;23.17;41.68;100869.02;105036;1300;61144;-84
2022/05/21 07:47:35;;;;;;;4.80;2.60;;;;;;;23.17;41.83;100869.71;104796;1300;61409;-82
2022/05/21 07:50:01;;;;;;;4.30;2.60;;;;;;;23.17;41.75;100864.30;104837;1300;72804;-83
2022/05/21 07:52:36;;;;;;;4.60;2.80;;;;;;;23.17;41.67;100857.53;104881;1300;61285;-84
2022/05/21 07:55:01;;;;;;;5.40;2.20;;;;;;;23.17;41.66;100851.58;104926;1300;60544;-85
2022/05/21 07:57:27;;;;;;;4.90;2.50;;;;;;;23.17;41.65;100852.65;104890;1300;61389;-83
2022/05/21 07:59:58;;;;;;;4.40;2.30;;;;;;;23.17;41.68;100853.38;104890;1303;61315;-81
2022/05/21 08:02:27;;;;;;;3.90;2.40;;;;;;;23.18;41.66;100853.34;104875;1302;75713;-83
2022/05/21 08:04:53;;;;;;;4.30;2.50;;;;;;;23.17;41.76;100852.82;104715;1303;61191;-84
2022/05/21 08:07:20;;;;;;;5.30;2.60;;;;;;;23.17;41.67;100853.41;104826;1300;61303;-83
2022/05/21 08:09:48;;;;;;;4.40;2.40;;;;;;;23.17;41.65;100848.73;104859;1300;72548;-83
2022/05/21 08:12:19;;;;;;;4.80;2.50;;;;;;;23.17;41.65;100849.25;105053;1300;74071;-84
2022/05/21 08:14:45;;;;;;;5.20;2.30;;;;;;;23.17;41.68;100848.88;105058;1300;61162;-82
2022/05/21 08:17:11;;;;;;;3.60;2.20;;;;;;;23.17;41.67;100845.48;104913;1300;61279;-82
2022/05/21 08:19:41;;;;;;;5.10;2.60;;;;;;;23.17;41.63;100839.02;104818;1300;61284;-82
2022/05/21 08:28:05;;;;;;;5.00;2.50;;;;;;;23.17;41.58;100839.02;104951;1300;61261;-85
2022/05/21 08:30:32;;;;;;;5.30;2.50;;;;;;;23.17;41.75;100836.17;104719;1299;73041;-81
2022/05/21 08:33:00;;;;;;;4.00;2.40;;;;;;;23.17;41.64;100834.20;104847;1300;75739;-83
2022/05/21 08:35:30;;;;;;;4.90;2.70;;;;;;;23.17;41.70;100832.58;105062;1300;61298;-85
2022/05/21 08:37:58;;;;;;;4.00;2.50;;;;;;;23.17;41.69;100832.04;104828;1303;61166;-82
2022/05/21 08:40:41;;;;;;;5.40;2.30;;;;;;;23.17;41.82;100831.98;104779;1300;74553;-82
2022/05/21 08:43:20;;;;;;;4.70;2.40;;;;;;;23.17;41.77;100832.55;104828;1300;74796;-82
2022/05/21 08:45:59;;;;;;;4.40;2.40;;;;;;;23.18;41.78;100825.54;104778;1300;61299;-83
2022/05/21 08:48:24;;;;;;;3.60;2.20;;;;;;;23.18;41.74;100828.02;105124;1300;61868;-83
2022/05/21 08:50:54;;;;;;;5.80;2.80;;;;;;;23.18;41.70;100831.23;104757;1302;61365;-82
2022/05/21 08:53:25;;;;;;;5.10;2.80;;;;;;;23.18;41.81;100828.89;104809;1303;72773;-83
2022/05/21 08:55:57;;;;;;;4.60;2.40;;;;;;;23.18;41.89;100820.41;104895;1301;60272;-83
2022/05/21 08:58:40;;;;;;;4.20;2.50;;;;;;;23.18;41.81;100815.93;104803;1300;61843;-82
2022/05/21 09:01:09;;;;;;;6.20;2.80;;;;;;;23.19;41.77;100812.88;104759;1300;73601;-82
2022/05/21 09:03:34;;;;;;;4.30;2.30;;;;;;;23.19;41.70;100804.80;104694;1300;74684;-81
2022/05/21 09:06:39;;;;;;;4.00;2.30;;;;;;;23.19;41.73;100806.41;104810;1300;61378;-84
2022/05/21 09:09:13;;;;;;;4.00;2.50;;;;;;;23.19;41.78;100802.80;105135;1300;62886;-84
2022/05/21 09:11:46;;;;;;;5.80;2.50;;;;;;;23.19;41.76;100800.63;104810;1300;72837;-84
2022/05/21 09:14:41;;;;;;;5.70;2.30;;;;;;;23.18;41.84;100804.63;105029;1300;75606;-82
2022/05/21 09:17:14;;;;;;;;;;;;;;;23.18;41.83;100805.19;105206;1300;61362;-83
2022/05/21 09:19:51;;;;;;;4.00;2.30;;;;;;;23.16;41.90;100806.40;105051;1300;61695;-83
2022/05/21 09:22:19;;;;;;;4.00;2.30;;;;;;;23.17;41.90;100804.04;104754;1300;73165;-82
2022/05/21 09:24:45;;;;;;;5.40;2.50;;;;;;;23.17;41.83;100801.14;104720;1300;74545;-84
2022/05/21 09:27:34;;;;;;;5.50;2.50;;;;;;;23.17;41.83;100795.21;105067;1303;59806;-83
2022/05/21 09:30:17;;;;;;;4.30;2.20;;;;;;;23.17;41.93;100789.69;105109;1300;61878;-83
2022/05/21 09:32:46;;;;;;;4.60;2.30;;;;;;;23.17;41.81;100791.27;105201;1300;72759;-81
2022/05/21 09:35:17;;;;;;;4.20;2.50;;;;;;;23.17;41.92;100792.17;105113;1300;74742;-83
2022/05/21 09:37:46;;;;;;;3.80;2.30;;;;;;;23.17;41.84;100787.52;104613;1300;61291;-82
2022/05/21 09:40:25;;;;;;;4.50;2.50;;;;;;;23.17;41.89;100785.92;105102;1300;61504;-83
2022/05/21 09:45:36;;;;;;;4.30;2.40;;;;;;;23.16;41.87;100787.36;104872;1303;76398;-83
2022/05/21 09:48:05;;;;;;;4.10;2.30;;;;;;;23.16;41.85;100785.58;105048;1302;61333;-82
2022/05/21 09:51:03;;;;;;;5.60;2.50;;;;;;;23.16;41.76;100773.92;105106;1300;61294;-80
2022/05/21 09:53:39;;;;;;;4.30;2.40;;;;;;;23.16;41.82;100764.43;104349;1309;73040;-84
2022/05/21 09:56:25;;;;;;;4.80;2.40;;;;;;;23.17;41.80;100757.58;104297;1308;75890;-83
2022/05/21 09:58:53;;;;;;;4.10;2.50;;;;;;;23.16;41.89;100759.02;104257;1308;61438;-83
2022/05/21 10:01:38;;;;;;;4.30;2.50;;;;;;;23.17;41.84;100759.52;104209;1308;61089;-83
2022/05/21 10:04:23;;;;;;;4.30;2.50;;;;;;;23.16;41.86;100753.83;104213;1309;73871;-83
2022/05/21 10:06:53;;;;;;;5.40;2.50;;;;;;;23.16;41.78;100756.71;104348;1308;74705;-83
2022/05/21 10:12:13;;;;;;;4.60;2.20;;;;;;;23.15;41.82;100750.13;104414;1308;61442;-82
2022/05/21 10:15:00;;;;;;;4.10;2.10;;;;;;;23.16;41.83;100741.13;104354;1308;72661;-82
2022/05/21 10:17:34;;;;;;;6.10;2.70;;;;;;;23.16;41.85;100737.69;104056;1313;76142;-85
2022/05/21 10:20:04;;;;;;;4.40;2.50;;;;;;;23.15;41.91;100731.63;104071;1313;61665;-82
2022/05/21 10:22:44;;;;;;;4.10;2.20;;;;;;;23.15;41.87;100724.25;104147;1313;61248;-85
2022/05/21 10:25:14;;;;;;;5.10;2.10;;;;;;;23.16;41.85;100718.65;104011;1313;74015;-82
2022/05/21 10:28:03;;;;;;;4.10;2.40;;;;;;;23.16;41.82;100712.92;103994;1314;74810;-82
2022/05/21 10:30:44;;;;;;;4.30;2.60;;;;;;;23.16;41.87;100710.05;104485;1308;62988;-83
2022/05/21 10:33:29;;;;;;;4.60;2.20;;;;;;;23.16;41.80;100702.15;104600;1306;61355;-84
2022/05/21 10:36:30;;;;;;;4.00;2.20;;;;;;;23.16;41.91;100694.23;104762;1305;74105;-84
2022/05/21 10:39:02;;;;;;;5.10;2.30;;;;;;;23.16;41.88;100690.48;104681;1306;75576;-84
2022/05/21 10:41:40;;;;;;;4.90;2.40;;;;;;;23.16;41.83;100689.93;104690;1305;61279;-85
2022/05/21 10:44:23;;;;;;;4.40;2.20;;;;;;;23.16;41.83;100693.73;104679;1306;61259;-83
2022/05/21 10:47:06;;;;;;;3.70;2.20;;;;;;;23.16;41.81;100690.66;104725;1305;74138;-85
2022/05/21 10:49:49;;;;;;;4.50;2.20;;;;;;;23.16;41.80;100693.33;104761;1302;74806;-82
2022/05/21 10:52:27;;;;;;;3.80;2.10;;;;;;;23.16;41.81;100691.38;104862;1302;61382;-82
2022/05/21 10:55:19;;;;;;;4.40;2.30;;;;;;;23.16;41.71;100693.36;104874;1303;61234;-83
2022/05/21 10:58:07;;;;;;;4.00;2.40;;;;;;;23.15;41.85;100694.11;104807;1303;72953;-83
2022/05/21 11:00:41;;;;;;;4.60;2.30;;;;;;;23.15;41.80;100691.25;104865;1302;75773;-82
2022/05/21 11:03:24;;;;;;;4.20;2.30;;;;;;;23.15;41.76;100686.58;105057;1303;61433;-85
2022/05/21 11:06:32;;;;;;;3.80;2.20;;;;;;;23.15;41.87;100687.13;105121;1303;61422;-83
2022/05/21 11:09:25;;;;;;;4.60;2.20;;;;;;;23.15;41.85;100687.16;105084;1301;72684;-82
2022/05/21 11:12:11;;;;;;;5.70;2.30;;;;;;;23.14;41.81;100673.36;104849;1302;76191;-82
2022/05/21 11:15:01;;;;;;;4.20;2.30;;;;;;;23.14;41.74;100664.03;105170;1303;61507;-80
2022/05/21 11:17:42;;;;;;;3.50;2.30;;;;;;;23.14;41.63;100668.36;105109;1303;61444;-84
2022/05/21 11:20:23;;;;;;;3.00;1.90;;;;;;;23.14;41.68;100661.52;104609;1303;72632;-82
2022/05/21 11:23:02;;;;;;;4.30;2.20;;;;;;;23.14;41.72;100659.02;104290;1303;871688;-82
2022/05/21 11:25:48;;;;;;;4.40;2.20;;;;;;;23.14;41.70;100659.55;104829;1302;61145;-83
2022/05/21 11:28:43;;;;;;;5.00;2.30;;;;;;;23.14;41.70;100657.25;104818;1303;61624;-84
2022/05/21 11:37:21;;;;;;;3.90;2.00;;;;;;;23.14;41.70;100671.58;104798;1303;61166;-81
2022/05/21 11:39:56;;;;;;;4.50;2.40;;;;;;;23.14;41.58;100666.90;104807;1303;61220;-84
2022/05/21 11:42:24;;;;;;;4.00;2.00;;;;;;;23.15;41.63;100664.13;105016;1302;73865;-82
2022/05/21 11:44:58;;;;;;;3.70;2.20;;;;;;;23.15;41.57;100659.29;104870;1301;75608;-82
2022/05/21 11:47:52;;;;;;;3.50;2.00;;;;;;;23.16;41.54;100655.95;104864;1303;61353;-82
2022/05/21 11:50:30;;;;;;;3.80;1.90;;;;;;;23.16;41.54;100645.77;104441;1309;61284;-84
2022/05/21 11:53:32;;;;;;;4.30;2.30;;;;;;;23.17;41.53;100632.98;104309;1309;74376;-83
2022/05/21 11:56:00;;;;;;;5.50;2.30;;;;;;;23.16;41.45;100638.92;104382;1308;74821;-84
2022/05/21 11:58:48;;;;;;;3.50;2.10;;;;;;;23.17;41.43;100639.58;104483;1308;61413;-82
2022/05/21 12:01:41;;;;;;;4.70;2.20;;;;;;;23.17;41.34;100633.45;104271;1309;61288;-84
2022/05/21 12:04:24;;;;;;;4.30;2.00;;;;;;;23.17;41.26;100626.65;104404;1308;74495;-82